sensor_id;sensor_type;location;lat;lon;timestamp;temperature;humidity
36444;DHT22;24692;45.642;13.806;2022-07-29T00:01:21;25.10;99.90
36444;DHT22;24692;45.642;13.806;2022-07-29T00:03:47;25.10;99.90
36444;DHT22;24692;45.642;13.806;2022-07-29T00:06:14;25.10;99.90
36444;DHT22;24692;45.642;13.806;2022-07-29T00:08:39;25.10;99.90
36444;DHT22;24692;45.642;13.806;2022-07-29T00:11:05;25.10;99.90
36444;DHT22;24692;45.642;13.806;2022-07-29T00:13:31;25.20;99.90
36444;DHT22;24692;45.642;13.806;2022-07-29T00:15:56;25.10;99.90
36444;DHT22;24692;45.642;13.806;2022-07-29T00:18:22;25.10;99.90
36444;DHT22;24692;45.642;13.806;2022-07-29T00:20:48;25.00;99.90
36444;DHT22;24692;45.642;13.806;2022-07-29T00:23:13;25.10;99.90
36444;DHT22;24692;45.642;13.806;2022-07-29T00:25:39;25.10;99.90
36444;DHT22;24692;45.642;13.806;2022-07-29T00:28:05;25.10;99.90
36444;DHT22;24692;45.642;13.806;2022-07-29T00:30:31;25.00;99.90
36444;DHT22;24692;45.642;13.806;2022-07-29T00:32:56;25.10;99.90
36444;DHT22;24692;45.642;13.806;2022-07-29T00:35:22;25.10;99.90
36444;DHT22;24692;45.642;13.806;2022-07-29T00:38:06;25.10;99.90
36444;DHT22;24692;45.642;13.806;2022-07-29T00:40:32;25.10;99.90
36444;DHT22;24692;45.642;13.806;2022-07-29T00:42:58;25.00;99.90
36444;DHT22;24692;45.642;13.806;2022-07-29T00:45:23;25.00;99.90
36444;DHT22;24692;45.642;13.806;2022-07-29T00:47:49;24.90;99.90
36444;DHT22;24692;45.642;13.806;2022-07-29T00:50:15;25.00;99.90
36444;DHT22;24692;45.642;13.806;2022-07-29T00:52:42;25.00;99.90
36444;DHT22;24692;45.642;13.806;2022-07-29T00:55:10;24.90;99.90
36444;DHT22;24692;45.642;13.806;2022-07-29T00:57:37;24.90;99.90
36444;DHT22;24692;45.642;13.806;2022-07-29T01:00:09;24.80;99.90
36444;DHT22;24692;45.642;13.806;2022-07-29T01:02:35;24.80;99.90
36444;DHT22;24692;45.642;13.806;2022-07-29T01:05:02;24.80;99.90
36444;DHT22;24692;45.642;13.806;2022-07-29T01:07:30;24.80;99.90
36444;DHT22;24692;45.642;13.806;2022-07-29T01:09:57;24.80;99.90
36444;DHT22;24692;45.642;13.806;2022-07-29T01:12:27;24.80;99.90
36444;DHT22;24692;45.642;13.806;2022-07-29T01:14:55;24.80;99.90
36444;DHT22;24692;45.642;13.806;2022-07-29T01:20:00;24.80;99.90
36444;DHT22;24692;45.642;13.806;2022-07-29T01:27:51;24.60;99.90
36444;DHT22;24692;45.642;13.806;2022-07-29T01:30:24;24.60;99.90
36444;DHT22;24692;45.642;13.806;2022-07-29T01:32:54;24.60;99.90
36444;DHT22;24692;45.642;13.806;2022-07-29T01:35:34;24.70;99.90
36444;DHT22;24692;45.642;13.806;2022-07-29T01:38:08;24.70;99.90
36444;DHT22;24692;45.642;13.806;2022-07-29T01:40:43;24.70;99.90
36444;DHT22;24692;45.642;13.806;2022-07-29T01:43:16;24.70;99.90
36444;DHT22;24692;45.642;13.806;2022-07-29T01:45:50;24.70;99.90
36444;DHT22;24692;45.642;13.806;2022-07-29T01:48:27;24.70;99.90
36444;DHT22;24692;45.642;13.806;2022-07-29T01:51:03;24.80;99.90
36444;DHT22;24692;45.642;13.806;2022-07-29T01:53:47;24.90;99.90
36444;DHT22;24692;45.642;13.806;2022-07-29T01:56:18;24.90;99.90
36444;DHT22;24692;45.642;13.806;2022-07-29T01:58:45;24.90;99.90
36444;DHT22;24692;45.642;13.806;2022-07-29T02:01:13;25.00;99.90
36444;DHT22;24692;45.642;13.806;2022-07-29T02:03:43;25.00;99.90
36444;DHT22;24692;45.642;13.806;2022-07-29T02:06:11;24.90;99.90
36444;DHT22;24692;45.642;13.806;2022-07-29T02:08:38;24.90;99.90
36444;DHT22;24692;45.642;13.806;2022-07-29T02:11:05;24.90;99.90
36444;DHT22;24692;45.642;13.806;2022-07-29T02:13:34;24.90;99.90
36444;DHT22;24692;45.642;13.806;2022-07-29T02:16:02;24.80;99.90
36444;DHT22;24692;45.642;13.806;2022-07-29T02:18:30;24.80;99.90
36444;DHT22;24692;45.642;13.806;2022-07-29T02:20:57;24.80;99.90
36444;DHT22;24692;45.642;13.806;2022-07-29T02:23:24;24.70;99.90
36444;DHT22;24692;45.642;13.806;2022-07-29T02:25:56;24.70;99.90
36444;DHT22;24692;45.642;13.806;2022-07-29T02:28:23;24.70;99.90
36444;DHT22;24692;45.642;13.806;2022-07-29T02:30:51;24.70;99.90
36444;DHT22;24692;45.642;13.806;2022-07-29T02:33:18;24.70;99.90
36444;DHT22;24692;45.642;13.806;2022-07-29T02:35:46;24.70;99.90
36444;DHT22;24692;45.642;13.806;2022-07-29T02:38:16;24.60;99.90
36444;DHT22;24692;45.642;13.806;2022-07-29T02:41:05;24.50;99.90
36444;DHT22;24692;45.642;13.806;2022-07-29T02:43:34;24.60;99.90
36444;DHT22;24692;45.642;13.806;2022-07-29T02:46:04;24.50;99.90
36444;DHT22;24692;45.642;13.806;2022-07-29T02:48:38;24.60;99.90
36444;DHT22;24692;45.642;13.806;2022-07-29T02:51:17;24.70;99.90
36444;DHT22;24692;45.642;13.806;2022-07-29T02:53:49;24.60;99.90
36444;DHT22;24692;45.642;13.806;2022-07-29T02:56:18;24.60;99.90
36444;DHT22;24692;45.642;13.806;2022-07-29T02:58:54;24.60;99.90
36444;DHT22;24692;45.642;13.806;2022-07-29T03:01:25;24.50;99.90
36444;DHT22;24692;45.642;13.806;2022-07-29T03:03:54;24.60;99.90
36444;DHT22;24692;45.642;13.806;2022-07-29T03:06:25;24.50;99.90
36444;DHT22;24692;45.642;13.806;2022-07-29T03:08:53;24.40;99.90
36444;DHT22;24692;45.642;13.806;2022-07-29T03:11:20;24.40;99.90
36444;DHT22;24692;45.642;13.806;2022-07-29T03:13:46;24.40;99.90
36444;DHT22;24692;45.642;13.806;2022-07-29T03:16:13;24.40;99.90
36444;DHT22;24692;45.642;13.806;2022-07-29T03:18:39;24.40;99.90
36444;DHT22;24692;45.642;13.806;2022-07-29T03:21:05;24.40;99.90
36444;DHT22;24692;45.642;13.806;2022-07-29T03:23:31;24.40;99.90
36444;DHT22;24692;45.642;13.806;2022-07-29T03:25:57;24.50;99.90
36444;DHT22;24692;45.642;13.806;2022-07-29T03:28:23;24.40;99.90
36444;DHT22;24692;45.642;13.806;2022-07-29T03:30:49;24.40;99.90
36444;DHT22;24692;45.642;13.806;2022-07-29T03:33:15;24.40;99.90
36444;DHT22;24692;45.642;13.806;2022-07-29T03:35:41;24.40;99.90
36444;DHT22;24692;45.642;13.806;2022-07-29T03:38:07;24.40;99.90
36444;DHT22;24692;45.642;13.806;2022-07-29T03:40:38;24.40;99.90
36444;DHT22;24692;45.642;13.806;2022-07-29T03:43:07;24.40;99.90
36444;DHT22;24692;45.642;13.806;2022-07-29T03:45:34;24.30;99.90
36444;DHT22;24692;45.642;13.806;2022-07-29T03:48:09;24.30;99.90
36444;DHT22;24692;45.642;13.806;2022-07-29T03:50:36;24.30;99.90
36444;DHT22;24692;45.642;13.806;2022-07-29T03:53:02;24.40;99.90
36444;DHT22;24692;45.642;13.806;2022-07-29T03:55:29;24.40;99.90
36444;DHT22;24692;45.642;13.806;2022-07-29T03:57:57;24.60;99.90
36444;DHT22;24692;45.642;13.806;2022-07-29T04:00:25;24.70;99.90
36444;DHT22;24692;45.642;13.806;2022-07-29T04:02:52;24.80;99.90
36444;DHT22;24692;45.642;13.806;2022-07-29T04:05:18;24.90;99.90
36444;DHT22;24692;45.642;13.806;2022-07-29T04:07:45;25.00;99.90
36444;DHT22;24692;45.642;13.806;2022-07-29T04:10:11;25.00;99.90
36444;DHT22;24692;45.642;13.806;2022-07-29T04:12:37;25.10;99.90
36444;DHT22;24692;45.642;13.806;2022-07-29T04:15:05;25.10;99.90
36444;DHT22;24692;45.642;13.806;2022-07-29T04:17:31;25.10;99.90
36444;DHT22;24692;45.642;13.806;2022-07-29T04:19:57;25.10;99.90
36444;DHT22;24692;45.642;13.806;2022-07-29T04:22:22;25.20;99.90
36444;DHT22;24692;45.642;13.806;2022-07-29T04:24:48;25.20;99.90
36444;DHT22;24692;45.642;13.806;2022-07-29T04:27:14;25.30;99.90
36444;DHT22;24692;45.642;13.806;2022-07-29T04:29:40;25.30;99.90
36444;DHT22;24692;45.642;13.806;2022-07-29T04:32:06;25.40;99.90
36444;DHT22;24692;45.642;13.806;2022-07-29T04:34:31;25.50;99.90
36444;DHT22;24692;45.642;13.806;2022-07-29T04:36:57;25.50;99.90
36444;DHT22;24692;45.642;13.806;2022-07-29T04:39:23;25.30;99.90
36444;DHT22;24692;45.642;13.806;2022-07-29T04:41:49;25.30;99.90
36444;DHT22;24692;45.642;13.806;2022-07-29T04:44:15;25.30;99.90
36444;DHT22;24692;45.642;13.806;2022-07-29T04:46:41;25.30;99.90
36444;DHT22;24692;45.642;13.806;2022-07-29T04:49:07;25.40;99.90
36444;DHT22;24692;45.642;13.806;2022-07-29T04:51:33;25.40;99.90
36444;DHT22;24692;45.642;13.806;2022-07-29T04:53:59;25.30;99.90
36444;DHT22;24692;45.642;13.806;2022-07-29T04:56:24;25.30;99.90
36444;DHT22;24692;45.642;13.806;2022-07-29T04:58:50;25.30;99.90
36444;DHT22;24692;45.642;13.806;2022-07-29T05:01:15;25.50;99.90
36444;DHT22;24692;45.642;13.806;2022-07-29T05:03:41;25.50;99.90
36444;DHT22;24692;45.642;13.806;2022-07-29T05:06:07;25.50;99.90
36444;DHT22;24692;45.642;13.806;2022-07-29T05:08:32;25.60;99.90
36444;DHT22;24692;45.642;13.806;2022-07-29T05:10:58;25.80;99.90
36444;DHT22;24692;45.642;13.806;2022-07-29T05:13:24;25.90;99.90
36444;DHT22;24692;45.642;13.806;2022-07-29T05:15:49;26.00;99.90
36444;DHT22;24692;45.642;13.806;2022-07-29T05:18:15;26.00;99.90
36444;DHT22;24692;45.642;13.806;2022-07-29T05:20:41;26.10;99.90
36444;DHT22;24692;45.642;13.806;2022-07-29T05:23:07;26.10;99.90
36444;DHT22;24692;45.642;13.806;2022-07-29T05:25:32;26.20;99.90
36444;DHT22;24692;45.642;13.806;2022-07-29T05:27:58;26.30;99.90
36444;DHT22;24692;45.642;13.806;2022-07-29T05:30:24;26.30;99.90
36444;DHT22;24692;45.642;13.806;2022-07-29T05:32:50;26.20;99.90
36444;DHT22;24692;45.642;13.806;2022-07-29T05:35:16;26.10;99.90
36444;DHT22;24692;45.642;13.806;2022-07-29T05:37:42;26.20;99.90
36444;DHT22;24692;45.642;13.806;2022-07-29T05:40:08;26.00;99.90
36444;DHT22;24692;45.642;13.806;2022-07-29T05:42:34;26.00;99.90
36444;DHT22;24692;45.642;13.806;2022-07-29T05:45:00;26.10;99.90
36444;DHT22;24692;45.642;13.806;2022-07-29T05:47:26;26.20;99.90
36444;DHT22;24692;45.642;13.806;2022-07-29T05:49:52;26.20;99.90
36444;DHT22;24692;45.642;13.806;2022-07-29T05:52:18;26.40;99.90
36444;DHT22;24692;45.642;13.806;2022-07-29T05:54:44;26.50;99.90
36444;DHT22;24692;45.642;13.806;2022-07-29T05:57:21;26.60;99.90
36444;DHT22;24692;45.642;13.806;2022-07-29T05:59:48;26.70;99.90
36444;DHT22;24692;45.642;13.806;2022-07-29T06:02:14;26.80;99.90
36444;DHT22;24692;45.642;13.806;2022-07-29T06:04:40;26.90;99.90
36444;DHT22;24692;45.642;13.806;2022-07-29T06:07:06;27.00;99.90
36444;DHT22;24692;45.642;13.806;2022-07-29T06:09:33;27.10;99.90
36444;DHT22;24692;45.642;13.806;2022-07-29T06:11:59;27.10;99.90
36444;DHT22;24692;45.642;13.806;2022-07-29T06:14:25;27.20;99.90
36444;DHT22;24692;45.642;13.806;2022-07-29T06:16:52;27.20;99.90
36444;DHT22;24692;45.642;13.806;2022-07-29T06:19:18;27.30;99.90
36444;DHT22;24692;45.642;13.806;2022-07-29T06:21:45;27.50;99.90
36444;DHT22;24692;45.642;13.806;2022-07-29T06:24:11;27.60;99.90
36444;DHT22;24692;45.642;13.806;2022-07-29T06:26:38;27.80;99.90
36444;DHT22;24692;45.642;13.806;2022-07-29T06:29:05;27.90;99.90
36444;DHT22;24692;45.642;13.806;2022-07-29T06:31:31;28.00;99.90
36444;DHT22;24692;45.642;13.806;2022-07-29T06:33:56;28.00;99.90
36444;DHT22;24692;45.642;13.806;2022-07-29T06:36:22;28.00;99.90
36444;DHT22;24692;45.642;13.806;2022-07-29T06:38:48;28.00;99.90
36444;DHT22;24692;45.642;13.806;2022-07-29T06:41:13;28.10;99.90
36444;DHT22;24692;45.642;13.806;2022-07-29T06:43:42;28.00;99.90
36444;DHT22;24692;45.642;13.806;2022-07-29T06:46:10;27.90;99.90
36444;DHT22;24692;45.642;13.806;2022-07-29T06:48:37;28.00;99.90
36444;DHT22;24692;45.642;13.806;2022-07-29T06:51:03;28.00;99.90
36444;DHT22;24692;45.642;13.806;2022-07-29T06:53:30;28.00;99.90
36444;DHT22;24692;45.642;13.806;2022-07-29T06:55:56;27.90;99.90
36444;DHT22;24692;45.642;13.806;2022-07-29T06:58:23;27.90;99.90
36444;DHT22;24692;45.642;13.806;2022-07-29T07:00:49;27.80;99.90
36444;DHT22;24692;45.642;13.806;2022-07-29T07:03:15;27.90;99.90
36444;DHT22;24692;45.642;13.806;2022-07-29T07:05:41;28.00;99.90
36444;DHT22;24692;45.642;13.806;2022-07-29T07:08:07;28.10;99.90
36444;DHT22;24692;45.642;13.806;2022-07-29T07:10:33;28.30;99.90
36444;DHT22;24692;45.642;13.806;2022-07-29T07:13:00;28.20;99.90
36444;DHT22;24692;45.642;13.806;2022-07-29T07:15:26;28.30;99.90
36444;DHT22;24692;45.642;13.806;2022-07-29T07:17:52;28.40;99.90
36444;DHT22;24692;45.642;13.806;2022-07-29T07:20:18;28.50;99.90
36444;DHT22;24692;45.642;13.806;2022-07-29T07:22:44;28.60;99.90
36444;DHT22;24692;45.642;13.806;2022-07-29T07:25:10;28.70;99.90
36444;DHT22;24692;45.642;13.806;2022-07-29T07:27:36;28.80;99.90
36444;DHT22;24692;45.642;13.806;2022-07-29T07:30:04;28.90;99.90
36444;DHT22;24692;45.642;13.806;2022-07-29T07:32:34;29.10;99.90
36444;DHT22;24692;45.642;13.806;2022-07-29T07:35:02;29.20;99.90
36444;DHT22;24692;45.642;13.806;2022-07-29T07:37:28;29.50;99.90
36444;DHT22;24692;45.642;13.806;2022-07-29T07:39:54;29.60;99.90
36444;DHT22;24692;45.642;13.806;2022-07-29T07:42:20;29.60;99.90
36444;DHT22;24692;45.642;13.806;2022-07-29T07:44:46;29.60;99.90
36444;DHT22;24692;45.642;13.806;2022-07-29T07:47:14;29.70;99.90
36444;DHT22;24692;45.642;13.806;2022-07-29T07:49:40;29.70;99.90
36444;DHT22;24692;45.642;13.806;2022-07-29T07:52:05;29.80;99.90
36444;DHT22;24692;45.642;13.806;2022-07-29T07:54:31;29.80;99.90
36444;DHT22;24692;45.642;13.806;2022-07-29T07:56:57;29.70;99.90
36444;DHT22;24692;45.642;13.806;2022-07-29T07:59:23;29.70;99.90
36444;DHT22;24692;45.642;13.806;2022-07-29T08:01:49;29.60;99.90
36444;DHT22;24692;45.642;13.806;2022-07-29T08:04:15;29.60;99.90
36444;DHT22;24692;45.642;13.806;2022-07-29T08:06:41;29.80;99.90
36444;DHT22;24692;45.642;13.806;2022-07-29T08:09:07;30.10;99.90
36444;DHT22;24692;45.642;13.806;2022-07-29T08:11:33;30.00;99.90
36444;DHT22;24692;45.642;13.806;2022-07-29T08:13:58;29.80;99.90
36444;DHT22;24692;45.642;13.806;2022-07-29T08:16:24;30.10;99.90
36444;DHT22;24692;45.642;13.806;2022-07-29T08:18:51;30.70;99.90
36444;DHT22;24692;45.642;13.806;2022-07-29T08:21:17;31.90;99.90
36444;DHT22;24692;45.642;13.806;2022-07-29T08:23:46;32.80;99.90
36444;DHT22;24692;45.642;13.806;2022-07-29T08:26:15;32.90;99.90
36444;DHT22;24692;45.642;13.806;2022-07-29T08:28:42;34.10;99.90
36444;DHT22;24692;45.642;13.806;2022-07-29T08:31:12;34.30;99.90
36444;DHT22;24692;45.642;13.806;2022-07-29T08:33:38;34.40;99.90
36444;DHT22;24692;45.642;13.806;2022-07-29T08:36:05;34.30;99.90
36444;DHT22;24692;45.642;13.806;2022-07-29T08:38:32;34.50;99.90
36444;DHT22;24692;45.642;13.806;2022-07-29T08:40:58;34.50;99.90
36444;DHT22;24692;45.642;13.806;2022-07-29T08:43:25;34.50;99.90
36444;DHT22;24692;45.642;13.806;2022-07-29T08:45:51;34.30;99.90
36444;DHT22;24692;45.642;13.806;2022-07-29T08:48:22;35.20;99.90
36444;DHT22;24692;45.642;13.806;2022-07-29T08:50:53;35.80;99.90
36444;DHT22;24692;45.642;13.806;2022-07-29T08:53:20;35.30;99.90
36444;DHT22;24692;45.642;13.806;2022-07-29T08:55:49;34.90;99.90
36444;DHT22;24692;45.642;13.806;2022-07-29T08:58:16;35.30;99.90
36444;DHT22;24692;45.642;13.806;2022-07-29T09:01:02;35.90;99.90
36444;DHT22;24692;45.642;13.806;2022-07-29T09:03:32;36.10;99.90
36444;DHT22;24692;45.642;13.806;2022-07-29T09:06:01;35.60;99.90
36444;DHT22;24692;45.642;13.806;2022-07-29T09:08:27;35.90;99.90
36444;DHT22;24692;45.642;13.806;2022-07-29T09:10:55;35.90;99.90
36444;DHT22;24692;45.642;13.806;2022-07-29T09:13:24;35.00;99.90
36444;DHT22;24692;45.642;13.806;2022-07-29T09:15:50;35.20;99.90
36444;DHT22;24692;45.642;13.806;2022-07-29T09:18:34;35.50;99.90
36444;DHT22;24692;45.642;13.806;2022-07-29T09:21:01;35.00;99.90
36444;DHT22;24692;45.642;13.806;2022-07-29T09:24:11;35.30;99.90
36444;DHT22;24692;45.642;13.806;2022-07-29T09:26:40;35.20;99.90
36444;DHT22;24692;45.642;13.806;2022-07-29T09:29:16;35.70;99.90
36444;DHT22;24692;45.642;13.806;2022-07-29T09:31:44;35.60;99.90
36444;DHT22;24692;45.642;13.806;2022-07-29T09:34:11;36.00;99.90
36444;DHT22;24692;45.642;13.806;2022-07-29T09:36:43;35.90;99.90
36444;DHT22;24692;45.642;13.806;2022-07-29T09:39:09;36.60;99.90
36444;DHT22;24692;45.642;13.806;2022-07-29T09:41:52;36.40;99.90
36444;DHT22;24692;45.642;13.806;2022-07-29T09:44:22;36.70;99.90
36444;DHT22;24692;45.642;13.806;2022-07-29T09:46:59;36.30;99.90
36444;DHT22;24692;45.642;13.806;2022-07-29T09:49:55;36.60;99.90
36444;DHT22;24692;45.642;13.806;2022-07-29T09:52:24;36.80;99.90
36444;DHT22;24692;45.642;13.806;2022-07-29T09:54:50;37.10;99.90
36444;DHT22;24692;45.642;13.806;2022-07-29T09:57:25;36.50;99.90
36444;DHT22;24692;45.642;13.806;2022-07-29T10:00:23;36.10;99.90
36444;DHT22;24692;45.642;13.806;2022-07-29T10:02:50;36.20;99.90
36444;DHT22;24692;45.642;13.806;2022-07-29T10:07:51;35.70;99.90
36444;DHT22;24692;45.642;13.806;2022-07-29T10:10:30;35.50;99.90
36444;DHT22;24692;45.642;13.806;2022-07-29T10:13:01;35.60;99.90
36444;DHT22;24692;45.642;13.806;2022-07-29T10:15:32;36.10;99.90
36444;DHT22;24692;45.642;13.806;2022-07-29T10:17:59;35.70;99.90
36444;DHT22;24692;45.642;13.806;2022-07-29T10:20:26;35.70;99.90
36444;DHT22;24692;45.642;13.806;2022-07-29T10:22:53;35.80;99.90
36444;DHT22;24692;45.642;13.806;2022-07-29T10:25:19;35.20;99.90
36444;DHT22;24692;45.642;13.806;2022-07-29T10:27:46;35.70;99.90
36444;DHT22;24692;45.642;13.806;2022-07-29T10:30:14;36.20;99.90
36444;DHT22;24692;45.642;13.806;2022-07-29T10:44:16;35.60;99.90
36444;DHT22;24692;45.642;13.806;2022-07-29T10:46:43;35.80;99.90
36444;DHT22;24692;45.642;13.806;2022-07-29T10:49:17;35.60;99.90
36444;DHT22;24692;45.642;13.806;2022-07-29T10:51:59;36.00;99.90
36444;DHT22;24692;45.642;13.806;2022-07-29T10:57:27;36.80;99.90
36444;DHT22;24692;45.642;13.806;2022-07-29T11:05:00;37.00;99.90
36444;DHT22;24692;45.642;13.806;2022-07-29T11:07:26;36.50;99.90
36444;DHT22;24692;45.642;13.806;2022-07-29T11:15:18;37.00;99.90
36444;DHT22;24692;45.642;13.806;2022-07-29T11:20:42;37.00;99.90
36444;DHT22;24692;45.642;13.806;2022-07-29T11:23:20;37.40;99.90
36444;DHT22;24692;45.642;13.806;2022-07-29T11:28:39;36.70;99.90
36444;DHT22;24692;45.642;13.806;2022-07-29T11:31:08;36.90;99.90
36444;DHT22;24692;45.642;13.806;2022-07-29T11:33:35;36.20;99.90
36444;DHT22;24692;45.642;13.806;2022-07-29T11:36:14;36.40;99.90
36444;DHT22;24692;45.642;13.806;2022-07-29T11:38:41;36.80;99.90
36444;DHT22;24692;45.642;13.806;2022-07-29T11:41:25;37.00;99.90
36444;DHT22;24692;45.642;13.806;2022-07-29T11:43:56;36.70;99.90
36444;DHT22;24692;45.642;13.806;2022-07-29T11:46:55;37.10;99.90
36444;DHT22;24692;45.642;13.806;2022-07-29T11:49:23;37.80;99.90
36444;DHT22;24692;45.642;13.806;2022-07-29T11:51:53;36.90;99.90
36444;DHT22;24692;45.642;13.806;2022-07-29T11:54:30;36.20;99.90
36444;DHT22;24692;45.642;13.806;2022-07-29T11:56:58;36.20;99.90
36444;DHT22;24692;45.642;13.806;2022-07-29T11:59:24;36.60;99.90
36444;DHT22;24692;45.642;13.806;2022-07-29T12:01:58;37.00;99.90
36444;DHT22;24692;45.642;13.806;2022-07-29T12:04:24;37.10;99.90
36444;DHT22;24692;45.642;13.806;2022-07-29T12:06:54;36.30;99.90
36444;DHT22;24692;45.642;13.806;2022-07-29T12:09:21;35.80;99.90
36444;DHT22;24692;45.642;13.806;2022-07-29T12:11:47;36.30;99.90
36444;DHT22;24692;45.642;13.806;2022-07-29T12:14:29;36.40;99.90
36444;DHT22;24692;45.642;13.806;2022-07-29T12:16:57;36.40;99.90
36444;DHT22;24692;45.642;13.806;2022-07-29T12:19:22;37.00;99.90
36444;DHT22;24692;45.642;13.806;2022-07-29T12:21:51;36.50;99.90
36444;DHT22;24692;45.642;13.806;2022-07-29T12:24:17;36.80;99.90
36444;DHT22;24692;45.642;13.806;2022-07-29T12:27:03;36.00;99.90
36444;DHT22;24692;45.642;13.806;2022-07-29T12:29:29;36.50;99.90
36444;DHT22;24692;45.642;13.806;2022-07-29T12:31:55;36.70;99.90
36444;DHT22;24692;45.642;13.806;2022-07-29T12:34:23;37.80;99.90
36444;DHT22;24692;45.642;13.806;2022-07-29T12:36:49;37.70;99.90
36444;DHT22;24692;45.642;13.806;2022-07-29T12:39:16;37.40;99.90
36444;DHT22;24692;45.642;13.806;2022-07-29T12:41:43;37.50;99.90
36444;DHT22;24692;45.642;13.806;2022-07-29T12:44:09;37.40;99.90
36444;DHT22;24692;45.642;13.806;2022-07-29T12:46:35;36.60;99.90
36444;DHT22;24692;45.642;13.806;2022-07-29T12:49:01;36.40;99.90
36444;DHT22;24692;45.642;13.806;2022-07-29T12:54:12;36.80;99.90
36444;DHT22;24692;45.642;13.806;2022-07-29T12:56:43;36.80;99.90
36444;DHT22;24692;45.642;13.806;2022-07-29T12:59:15;36.80;99.90
36444;DHT22;24692;45.642;13.806;2022-07-29T13:01:43;36.80;99.90
36444;DHT22;24692;45.642;13.806;2022-07-29T13:04:10;36.80;99.90
36444;DHT22;24692;45.642;13.806;2022-07-29T13:06:39;36.70;99.90
36444;DHT22;24692;45.642;13.806;2022-07-29T13:09:06;36.50;99.90
36444;DHT22;24692;45.642;13.806;2022-07-29T13:11:52;36.70;99.90
36444;DHT22;24692;45.642;13.806;2022-07-29T13:14:32;36.50;99.90
36444;DHT22;24692;45.642;13.806;2022-07-29T13:22:13;36.30;99.90
36444;DHT22;24692;45.642;13.806;2022-07-29T13:24:52;37.20;99.90
36444;DHT22;24692;45.642;13.806;2022-07-29T13:27:20;37.10;99.90
36444;DHT22;24692;45.642;13.806;2022-07-29T13:29:46;37.00;99.90
36444;DHT22;24692;45.642;13.806;2022-07-29T13:32:13;37.50;99.90
36444;DHT22;24692;45.642;13.806;2022-07-29T13:34:39;37.00;99.70
36444;DHT22;24692;45.642;13.806;2022-07-29T13:37:06;37.80;99.90
36444;DHT22;24692;45.642;13.806;2022-07-29T13:39:31;37.50;99.10
36444;DHT22;24692;45.642;13.806;2022-07-29T13:41:57;36.80;99.80
36444;DHT22;24692;45.642;13.806;2022-07-29T13:44:23;36.80;99.40
36444;DHT22;24692;45.642;13.806;2022-07-29T13:46:48;37.10;99.90
36444;DHT22;24692;45.642;13.806;2022-07-29T13:49:14;36.70;98.30
36444;DHT22;24692;45.642;13.806;2022-07-29T13:51:40;36.70;99.90
36444;DHT22;24692;45.642;13.806;2022-07-29T13:54:05;37.20;99.90
36444;DHT22;24692;45.642;13.806;2022-07-29T13:56:31;36.60;98.80
36444;DHT22;24692;45.642;13.806;2022-07-29T13:58:57;36.40;99.90
36444;DHT22;24692;45.642;13.806;2022-07-29T14:01:23;36.70;99.90
36444;DHT22;24692;45.642;13.806;2022-07-29T14:03:50;36.80;99.90
36444;DHT22;24692;45.642;13.806;2022-07-29T14:06:15;37.20;99.70
36444;DHT22;24692;45.642;13.806;2022-07-29T14:08:41;37.80;99.30
36444;DHT22;24692;45.642;13.806;2022-07-29T14:11:07;36.90;99.30
36444;DHT22;24692;45.642;13.806;2022-07-29T14:13:32;36.90;99.20
36444;DHT22;24692;45.642;13.806;2022-07-29T14:15:58;37.70;99.60
36444;DHT22;24692;45.642;13.806;2022-07-29T14:18:24;37.10;98.00
36444;DHT22;24692;45.642;13.806;2022-07-29T14:20:49;37.00;98.70
36444;DHT22;24692;45.642;13.806;2022-07-29T14:23:16;36.80;97.40
36444;DHT22;24692;45.642;13.806;2022-07-29T14:25:42;36.40;98.10
36444;DHT22;24692;45.642;13.806;2022-07-29T14:28:08;36.70;98.80
36444;DHT22;24692;45.642;13.806;2022-07-29T14:30:33;37.20;98.70
36444;DHT22;24692;45.642;13.806;2022-07-29T14:32:59;37.30;98.00
36444;DHT22;24692;45.642;13.806;2022-07-29T14:35:24;37.10;97.80
36444;DHT22;24692;45.642;13.806;2022-07-29T14:37:50;36.50;98.90
36444;DHT22;24692;45.642;13.806;2022-07-29T14:40:16;36.80;97.80
36444;DHT22;24692;45.642;13.806;2022-07-29T14:42:41;36.60;98.80
36444;DHT22;24692;45.642;13.806;2022-07-29T14:45:09;36.80;98.90
36444;DHT22;24692;45.642;13.806;2022-07-29T14:47:35;36.50;98.60
36444;DHT22;24692;45.642;13.806;2022-07-29T14:50:02;36.50;98.50
36444;DHT22;24692;45.642;13.806;2022-07-29T14:52:28;36.10;99.10
36444;DHT22;24692;45.642;13.806;2022-07-29T14:54:53;35.90;99.30
36444;DHT22;24692;45.642;13.806;2022-07-29T14:57:19;36.10;99.40
36444;DHT22;24692;45.642;13.806;2022-07-29T14:59:45;36.50;98.80
36444;DHT22;24692;45.642;13.806;2022-07-29T15:02:10;35.80;98.80
36444;DHT22;24692;45.642;13.806;2022-07-29T15:04:36;36.20;99.40
36444;DHT22;24692;45.642;13.806;2022-07-29T15:07:02;35.70;99.70
36444;DHT22;24692;45.642;13.806;2022-07-29T15:09:28;35.80;99.10
36444;DHT22;24692;45.642;13.806;2022-07-29T15:11:54;36.00;99.30
36444;DHT22;24692;45.642;13.806;2022-07-29T15:14:19;35.90;98.60
36444;DHT22;24692;45.642;13.806;2022-07-29T15:16:45;35.20;98.90
36444;DHT22;24692;45.642;13.806;2022-07-29T15:19:11;35.70;99.10
36444;DHT22;24692;45.642;13.806;2022-07-29T15:21:37;35.90;98.60
36444;DHT22;24692;45.642;13.806;2022-07-29T15:24:03;36.00;98.20
36444;DHT22;24692;45.642;13.806;2022-07-29T15:26:29;35.70;98.10
36444;DHT22;24692;45.642;13.806;2022-07-29T15:28:54;35.50;98.40
36444;DHT22;24692;45.642;13.806;2022-07-29T15:31:23;35.40;98.50
36444;DHT22;24692;45.642;13.806;2022-07-29T15:33:48;35.40;98.40
36444;DHT22;24692;45.642;13.806;2022-07-29T15:36:14;35.60;98.80
36444;DHT22;24692;45.642;13.806;2022-07-29T15:38:40;35.30;98.30
36444;DHT22;24692;45.642;13.806;2022-07-29T15:41:06;34.90;97.60
36444;DHT22;24692;45.642;13.806;2022-07-29T15:43:33;34.90;97.40
36444;DHT22;24692;45.642;13.806;2022-07-29T15:46:00;34.90;97.30
36444;DHT22;24692;45.642;13.806;2022-07-29T15:48:45;34.40;97.60
36444;DHT22;24692;45.642;13.806;2022-07-29T15:51:11;33.60;97.50
36444;DHT22;24692;45.642;13.806;2022-07-29T15:53:36;33.30;97.80
36444;DHT22;24692;45.642;13.806;2022-07-29T15:56:02;32.80;97.70
36444;DHT22;24692;45.642;13.806;2022-07-29T15:58:28;33.10;97.70
36444;DHT22;24692;45.642;13.806;2022-07-29T16:00:54;33.30;97.50
36444;DHT22;24692;45.642;13.806;2022-07-29T16:03:20;33.10;97.40
36444;DHT22;24692;45.642;13.806;2022-07-29T16:05:47;33.50;97.00
36444;DHT22;24692;45.642;13.806;2022-07-29T16:08:13;33.60;97.10
36444;DHT22;24692;45.642;13.806;2022-07-29T16:10:39;33.20;96.80